Time,TemperatureF,DewpointF,PressureIn,WindDirection,WindDirectionDegrees,WindSpeedMPH,WindSpeedGustMPH,Humidity,HourlyPrecipIn,Conditions,Clouds,dailyrainin,SoftwareType,DateUTC
2013-02-25 00:00:00,31.0,-99.9,-100.00,North,357,12.0,14.0,-999,-99.99,,,-99.99,,2013-02-25 07:00:00,
2013-02-25 00:52:00,31.0,-99.9,-100.00,North,357,12.0,14.0,-999,-99.99,,,-99.99,,2013-02-25 07:52:00,
2013-02-25 01:00:00,29.0,-99.9,-100.00,North,7,11.0,14.0,-999,-99.99,,,-99.99,,2013-02-25 08:00:00,
2013-02-25 01:52:00,29.0,-99.9,-100.00,North,7,11.0,14.0,-999,-99.99,,,-99.99,,2013-02-25 08:52:00,
2013-02-25 02:00:00,27.0,-99.9,-100.00,NNW,342,5.0,6.0,-999,-99.99,,,-99.99,,2013-02-25 09:00:00,
2013-02-25 02:52:00,27.0,-99.9,-100.00,NNW,342,5.0,6.0,-999,-99.99,,,-99.99,,2013-02-25 09:52:00,
2013-02-25 03:00:00,25.0,-99.9,-100.00,WNW,297,7.0,9.0,-999,-99.99,,,-99.99,,2013-02-25 10:00:00,
2013-02-25 03:52:00,25.0,-99.9,-100.00,WNW,297,7.0,9.0,-999,-99.99,,,-99.99,,2013-02-25 10:52:00,
2013-02-25 04:00:00,27.0,-99.9,-100.00,NNW,347,8.0,10.0,-999,-99.99,,,-99.99,,2013-02-25 11:00:00,
2013-02-25 04:52:00,27.0,-99.9,-100.00,NNW,347,8.0,10.0,-999,-99.99,,,-99.99,,2013-02-25 11:52:00,
2013-02-25 05:00:00,23.0,-99.9,-100.00,North,0,14.0,15.0,-999,-99.99,,,-99.99,,2013-02-25 12:00:00,
2013-02-25 05:57:00,23.0,-99.9,-100.00,North,0,14.0,15.0,-999,-99.99,,,-99.99,,2013-02-25 12:57:00,
2013-02-25 06:00:00,23.0,-99.9,-100.00,NNW,334,6.0,7.0,-999,-99.99,,,-99.99,,2013-02-25 13:00:00,
2013-02-25 06:53:00,23.0,-99.9,-100.00,NNW,334,6.0,7.0,-999,-99.99,,,-99.99,,2013-02-25 13:53:00,
2013-02-25 07:00:00,23.0,-99.9,-100.00,North,0,11.0,12.0,-999,-99.99,,,-99.99,,2013-02-25 14:00:00,
2013-02-25 07:52:00,23.0,-99.9,-100.00,North,0,11.0,12.0,-999,-99.99,,,-99.99,,2013-02-25 14:52:00,
2013-02-25 08:00:00,23.0,-99.9,-100.00,WNW,301,6.0,7.0,-999,-99.99,,,-99.99,,2013-02-25 15:00:00,
2013-02-25 08:52:00,23.0,-99.9,-100.00,WNW,301,6.0,7.0,-999,-99.99,,,-99.99,,2013-02-25 15:52:00,
2013-02-25 09:00:00,25.0,-99.9,-100.00,West,259,12.0,14.0,-999,-99.99,,,-99.99,,2013-02-25 16:00:00,
2013-02-25 09:52:00,25.0,-99.9,-100.00,West,259,12.0,14.0,-999,-99.99,,,-99.99,,2013-02-25 16:52:00,
2013-02-25 10:00:00,27.0,-99.9,-100.00,WNW,295,9.0,11.0,-999,-99.99,,,-99.99,,2013-02-25 17:00:00,
2013-02-25 10:52:00,27.0,-99.9,-100.00,WNW,295,9.0,11.0,-999,-99.99,,,-99.99,,2013-02-25 17:52:00,
2013-02-25 11:00:00,31.0,-99.9,-100.00,NNW,340,16.0,17.0,-999,-99.99,,,-99.99,,2013-02-25 18:00:00,
2013-02-25 11:52:00,31.0,-99.9,-100.00,NNW,340,16.0,17.0,-999,-99.99,,,-99.99,,2013-02-25 18:52:00,
2013-02-25 12:00:00,32.0,-99.9,-100.00,NNW,339,9.0,11.0,-999,-99.99,,,-99.99,,2013-02-25 19:00:00,
2013-02-25 12:52:00,32.0,-99.9,-100.00,NNW,339,9.0,11.0,-999,-99.99,,,-99.99,,2013-02-25 19:52:00,
2013-02-25 13:00:00,35.0,-99.9,-100.00,NNW,329,10.0,12.0,-999,-99.99,,,-99.99,,2013-02-25 20:00:00,
2013-02-25 13:52:00,35.0,-99.9,-100.00,NNW,329,10.0,12.0,-999,-99.99,,,-99.99,,2013-02-25 20:52:00,
2013-02-25 14:00:00,37.0,-99.9,-100.00,NW,321,7.0,7.0,-999,-99.99,,,-99.99,,2013-02-25 21:00:00,
2013-02-25 14:52:00,37.0,-99.9,-100.00,NW,321,7.0,7.0,-999,-99.99,,,-99.99,,2013-02-25 21:52:00,
2013-02-25 15:00:00,39.0,-99.9,-100.00,WNW,298,5.0,7.0,-999,-99.99,,,-99.99,,2013-02-25 22:00:00,
2013-02-25 15:52:00,39.0,-99.9,-100.00,WNW,298,5.0,7.0,-999,-99.99,,,-99.99,,2013-02-25 22:52:00,
2013-02-25 16:00:00,39.0,-99.9,-100.00,NW,313,2.0,2.0,-999,-99.99,,,-99.99,,2013-02-25 23:00:00,
2013-02-25 16:52:00,39.0,-99.9,-100.00,NW,313,2.0,2.0,-999,-99.99,,,-99.99,,2013-02-25 23:52:00,
2013-02-25 17:00:00,33.0,-99.9,-100.00,NW,304,5.0,6.0,-999,-99.99,,,-99.99,,2013-02-26 00:00:00,
2013-02-25 17:52:00,33.0,-99.9,-100.00,NW,304,5.0,6.0,-999,-99.99,,,-99.99,,2013-02-26 00:52:00,
2013-02-25 18:00:00,29.0,-99.9,-100.00,NW,311,6.0,7.0,-999,-99.99,,,-99.99,,2013-02-26 01:00:00,
2013-02-25 18:52:00,29.0,-99.9,-100.00,NW,311,6.0,7.0,-999,-99.99,,,-99.99,,2013-02-26 01:52:00,
2013-02-25 19:00:00,27.0,-99.9,-100.00,SSW,202,0.0,1.0,-999,-99.99,,,-99.99,,2013-02-26 02:00:00,
2013-02-25 19:52:00,27.0,-99.9,-100.00,SSW,202,0.0,1.0,-999,-99.99,,,-99.99,,2013-02-26 02:52:00,
2013-02-25 20:00:00,23.0,-99.9,-100.00,NW,304,5.0,6.0,-999,-99.99,,,-99.99,,2013-02-26 03:00:00,
2013-02-25 20:52:00,23.0,-99.9,-100.00,NW,304,5.0,6.0,-999,-99.99,,,-99.99,,2013-02-26 03:52:00,
2013-02-25 21:00:00,20.0,-99.9,-100.00,West,277,2.0,3.0,-999,-99.99,,,-99.99,,2013-02-26 04:00:00,
2013-02-25 21:52:00,20.0,-99.9,-100.00,West,277,2.0,3.0,-999,-99.99,,,-99.99,,2013-02-26 04:52:00,
2013-02-25 22:00:00,18.0,-99.9,-100.00,WNW,282,2.0,3.0,-999,-99.99,,,-99.99,,2013-02-26 05:00:00,
2013-02-25 22:52:00,18.0,-99.9,-100.00,WNW,282,2.0,3.0,-999,-99.99,,,-99.99,,2013-02-26 05:52:00,
2013-02-25 23:00:00,14.0,-99.9,-100.00,NW,305,6.0,6.0,-999,-99.99,,,-99.99,,2013-02-26 06:00:00,
2013-02-25 23:52:00,14.0,-99.9,-100.00,NW,305,6.0,6.0,-999,-99.99,,,-99.99,,2013-02-26 06:52:00,